sensor_id;sensor_type;location;lat;lon;timestamp;P1;durP1;ratioP1;P2;durP2;ratioP2
8219;SDS011;4151;51.110;7.020;2022-10-15T00:00:05;12.93;;;7.60;;
8219;SDS011;4151;51.110;7.020;2022-10-15T00:02:31;13.50;;;9.00;;
8219;SDS011;4151;51.110;7.020;2022-10-15T00:04:57;12.33;;;7.47;;
8219;SDS011;4151;51.110;7.020;2022-10-15T00:07:23;14.50;;;8.57;;
8219;SDS011;4151;51.110;7.020;2022-10-15T00:09:49;13.00;;;8.10;;
8219;SDS011;4151;51.110;7.020;2022-10-15T00:12:15;14.23;;;8.37;;
8219;SDS011;4151;51.110;7.020;2022-10-15T00:14:41;12.83;;;8.03;;
8219;SDS011;4151;51.110;7.020;2022-10-15T00:17:06;14.13;;;8.80;;
8219;SDS011;4151;51.110;7.020;2022-10-15T00:19:32;19.20;;;8.90;;
8219;SDS011;4151;51.110;7.020;2022-10-15T00:21:57;12.90;;;8.53;;
8219;SDS011;4151;51.110;7.020;2022-10-15T00:24:23;15.97;;;8.43;;
8219;SDS011;4151;51.110;7.020;2022-10-15T00:26:48;15.20;;;8.80;;
8219;SDS011;4151;51.110;7.020;2022-10-15T00:29:14;20.17;;;9.47;;
8219;SDS011;4151;51.110;7.020;2022-10-15T00:31:40;15.10;;;8.97;;
8219;SDS011;4151;51.110;7.020;2022-10-15T00:34:05;22.13;;;9.40;;
8219;SDS011;4151;51.110;7.020;2022-10-15T00:36:32;18.67;;;9.37;;
8219;SDS011;4151;51.110;7.020;2022-10-15T00:39:00;15.03;;;8.87;;
8219;SDS011;4151;51.110;7.020;2022-10-15T00:41:27;17.03;;;8.47;;
8219;SDS011;4151;51.110;7.020;2022-10-15T00:43:56;12.90;;;8.77;;
8219;SDS011;4151;51.110;7.020;2022-10-15T00:49:14;12.57;;;7.90;;
8219;SDS011;4151;51.110;7.020;2022-10-15T00:51:42;16.47;;;9.23;;
8219;SDS011;4151;51.110;7.020;2022-10-15T00:54:11;19.10;;;8.67;;
8219;SDS011;4151;51.110;7.020;2022-10-15T00:56:38;16.03;;;8.57;;
8219;SDS011;4151;51.110;7.020;2022-10-15T00:59:07;13.27;;;7.57;;
8219;SDS011;4151;51.110;7.020;2022-10-15T01:01:35;14.00;;;8.30;;
8219;SDS011;4151;51.110;7.020;2022-10-15T01:04:00;15.87;;;8.00;;
8219;SDS011;4151;51.110;7.020;2022-10-15T01:06:28;19.57;;;8.97;;
8219;SDS011;4151;51.110;7.020;2022-10-15T01:08:54;14.20;;;8.43;;
8219;SDS011;4151;51.110;7.020;2022-10-15T01:11:40;19.33;;;8.80;;
8219;SDS011;4151;51.110;7.020;2022-10-15T01:16:40;17.27;;;8.70;;
8219;SDS011;4151;51.110;7.020;2022-10-15T01:21:49;12.60;;;7.73;;
8219;SDS011;4151;51.110;7.020;2022-10-15T01:27:31;15.90;;;7.83;;
8219;SDS011;4151;51.110;7.020;2022-10-15T01:30:17;14.20;;;9.37;;
8219;SDS011;4151;51.110;7.020;2022-10-15T01:43:32;11.93;;;8.13;;
8219;SDS011;4151;51.110;7.020;2022-10-15T01:46:04;24.03;;;9.20;;
8219;SDS011;4151;51.110;7.020;2022-10-15T01:48:33;16.27;;;9.00;;
8219;SDS011;4151;51.110;7.020;2022-10-15T01:51:02;20.30;;;8.67;;
8219;SDS011;4151;51.110;7.020;2022-10-15T01:53:30;15.90;;;9.10;;
8219;SDS011;4151;51.110;7.020;2022-10-15T01:56:02;14.67;;;7.77;;
8219;SDS011;4151;51.110;7.020;2022-10-15T01:58:39;16.07;;;8.77;;
8219;SDS011;4151;51.110;7.020;2022-10-15T02:01:07;20.17;;;9.97;;
8219;SDS011;4151;51.110;7.020;2022-10-15T02:03:46;15.60;;;9.07;;
8219;SDS011;4151;51.110;7.020;2022-10-15T02:06:19;20.00;;;10.40;;
8219;SDS011;4151;51.110;7.020;2022-10-15T02:09:05;18.03;;;10.20;;
8219;SDS011;4151;51.110;7.020;2022-10-15T02:14:17;25.63;;;10.80;;
8219;SDS011;4151;51.110;7.020;2022-10-15T02:17:11;13.10;;;8.87;;
8219;SDS011;4151;51.110;7.020;2022-10-15T02:22:31;18.00;;;9.60;;
8219;SDS011;4151;51.110;7.020;2022-10-15T02:25:09;22.43;;;9.73;;
8219;SDS011;4151;51.110;7.020;2022-10-15T02:27:42;17.80;;;9.53;;
8219;SDS011;4151;51.110;7.020;2022-10-15T02:30:09;28.23;;;10.20;;
8219;SDS011;4151;51.110;7.020;2022-10-15T02:32:36;20.87;;;10.07;;
8219;SDS011;4151;51.110;7.020;2022-10-15T02:35:04;19.87;;;9.83;;
8219;SDS011;4151;51.110;7.020;2022-10-15T02:37:32;18.07;;;9.63;;
8219;SDS011;4151;51.110;7.020;2022-10-15T02:39:59;22.87;;;11.37;;
8219;SDS011;4151;51.110;7.020;2022-10-15T02:42:25;26.23;;;10.97;;
8219;SDS011;4151;51.110;7.020;2022-10-15T02:44:51;20.53;;;10.53;;
8219;SDS011;4151;51.110;7.020;2022-10-15T02:47:17;23.73;;;10.60;;
8219;SDS011;4151;51.110;7.020;2022-10-15T02:49:42;26.10;;;10.90;;
8219;SDS011;4151;51.110;7.020;2022-10-15T02:52:08;25.77;;;11.10;;
8219;SDS011;4151;51.110;7.020;2022-10-15T02:54:33;27.47;;;11.70;;
8219;SDS011;4151;51.110;7.020;2022-10-15T02:56:59;16.00;;;8.70;;
8219;SDS011;4151;51.110;7.020;2022-10-15T02:59:24;24.07;;;9.50;;
8219;SDS011;4151;51.110;7.020;2022-10-15T03:01:50;21.43;;;10.73;;
8219;SDS011;4151;51.110;7.020;2022-10-15T03:04:16;16.70;;;9.20;;
8219;SDS011;4151;51.110;7.020;2022-10-15T03:06:41;20.60;;;10.53;;
8219;SDS011;4151;51.110;7.020;2022-10-15T03:09:07;18.00;;;9.80;;
8219;SDS011;4151;51.110;7.020;2022-10-15T03:11:32;17.90;;;8.50;;
8219;SDS011;4151;51.110;7.020;2022-10-15T03:13:58;16.43;;;9.83;;
8219;SDS011;4151;51.110;7.020;2022-10-15T03:16:24;22.67;;;10.77;;
8219;SDS011;4151;51.110;7.020;2022-10-15T03:18:49;23.70;;;10.93;;
8219;SDS011;4151;51.110;7.020;2022-10-15T03:21:15;31.83;;;11.57;;
8219;SDS011;4151;51.110;7.020;2022-10-15T03:23:40;23.10;;;11.07;;
8219;SDS011;4151;51.110;7.020;2022-10-15T03:26:06;25.20;;;11.67;;
8219;SDS011;4151;51.110;7.020;2022-10-15T03:28:32;26.50;;;12.60;;
8219;SDS011;4151;51.110;7.020;2022-10-15T03:30:57;25.17;;;11.93;;
8219;SDS011;4151;51.110;7.020;2022-10-15T03:33:23;28.93;;;11.50;;
8219;SDS011;4151;51.110;7.020;2022-10-15T03:35:49;27.27;;;13.00;;
8219;SDS011;4151;51.110;7.020;2022-10-15T03:38:15;21.70;;;10.73;;
8219;SDS011;4151;51.110;7.020;2022-10-15T03:40:42;22.30;;;12.23;;
8219;SDS011;4151;51.110;7.020;2022-10-15T03:43:09;26.07;;;12.03;;
8219;SDS011;4151;51.110;7.020;2022-10-15T03:45:34;28.47;;;13.57;;
8219;SDS011;4151;51.110;7.020;2022-10-15T03:48:00;26.53;;;12.60;;
8219;SDS011;4151;51.110;7.020;2022-10-15T03:50:25;30.10;;;13.00;;
8219;SDS011;4151;51.110;7.020;2022-10-15T03:52:51;33.60;;;13.80;;
8219;SDS011;4151;51.110;7.020;2022-10-15T03:55:16;26.70;;;11.80;;
8219;SDS011;4151;51.110;7.020;2022-10-15T03:57:42;26.20;;;13.10;;
8219;SDS011;4151;51.110;7.020;2022-10-15T04:00:08;20.93;;;11.50;;
8219;SDS011;4151;51.110;7.020;2022-10-15T04:02:35;32.37;;;14.07;;
8219;SDS011;4151;51.110;7.020;2022-10-15T04:05:01;23.17;;;11.40;;
8219;SDS011;4151;51.110;7.020;2022-10-15T04:07:27;24.70;;;11.37;;
8219;SDS011;4151;51.110;7.020;2022-10-15T04:09:52;30.70;;;13.20;;
8219;SDS011;4151;51.110;7.020;2022-10-15T04:12:18;25.53;;;12.30;;
8219;SDS011;4151;51.110;7.020;2022-10-15T04:14:43;32.70;;;12.80;;
8219;SDS011;4151;51.110;7.020;2022-10-15T04:17:10;26.93;;;12.97;;
8219;SDS011;4151;51.110;7.020;2022-10-15T04:19:35;28.57;;;12.60;;
8219;SDS011;4151;51.110;7.020;2022-10-15T04:22:01;32.30;;;14.63;;
8219;SDS011;4151;51.110;7.020;2022-10-15T04:24:27;27.70;;;13.90;;
8219;SDS011;4151;51.110;7.020;2022-10-15T04:26:52;30.70;;;14.37;;
8219;SDS011;4151;51.110;7.020;2022-10-15T04:29:18;37.87;;;14.40;;
8219;SDS011;4151;51.110;7.020;2022-10-15T04:31:44;28.53;;;13.87;;
8219;SDS011;4151;51.110;7.020;2022-10-15T04:34:09;31.63;;;14.73;;
8219;SDS011;4151;51.110;7.020;2022-10-15T04:36:35;29.50;;;13.77;;
8219;SDS011;4151;51.110;7.020;2022-10-15T04:39:01;32.33;;;14.57;;
8219;SDS011;4151;51.110;7.020;2022-10-15T04:41:28;37.77;;;14.70;;
8219;SDS011;4151;51.110;7.020;2022-10-15T04:43:54;29.33;;;13.97;;
8219;SDS011;4151;51.110;7.020;2022-10-15T04:46:20;30.40;;;14.90;;
8219;SDS011;4151;51.110;7.020;2022-10-15T04:48:46;30.33;;;13.23;;
8219;SDS011;4151;51.110;7.020;2022-10-15T04:51:13;26.43;;;12.80;;
8219;SDS011;4151;51.110;7.020;2022-10-15T04:53:41;32.83;;;12.57;;
8219;SDS011;4151;51.110;7.020;2022-10-15T04:56:07;27.57;;;13.77;;
8219;SDS011;4151;51.110;7.020;2022-10-15T04:58:37;30.10;;;13.33;;
8219;SDS011;4151;51.110;7.020;2022-10-15T05:01:07;28.10;;;13.20;;
8219;SDS011;4151;51.110;7.020;2022-10-15T05:03:36;34.57;;;14.70;;
8219;SDS011;4151;51.110;7.020;2022-10-15T05:06:03;31.10;;;13.23;;
8219;SDS011;4151;51.110;7.020;2022-10-15T05:08:31;30.37;;;14.70;;
8219;SDS011;4151;51.110;7.020;2022-10-15T05:11:01;28.90;;;14.13;;
8219;SDS011;4151;51.110;7.020;2022-10-15T05:13:31;26.63;;;13.40;;
8219;SDS011;4151;51.110;7.020;2022-10-15T05:16:00;37.87;;;14.23;;
8219;SDS011;4151;51.110;7.020;2022-10-15T05:18:44;38.87;;;14.07;;
8219;SDS011;4151;51.110;7.020;2022-10-15T05:21:12;33.07;;;14.17;;
8219;SDS011;4151;51.110;7.020;2022-10-15T05:23:38;40.93;;;15.07;;
8219;SDS011;4151;51.110;7.020;2022-10-15T05:26:08;33.17;;;14.53;;
8219;SDS011;4151;51.110;7.020;2022-10-15T05:28:40;32.50;;;15.20;;
8219;SDS011;4151;51.110;7.020;2022-10-15T05:31:07;35.73;;;14.80;;
8219;SDS011;4151;51.110;7.020;2022-10-15T05:33:35;38.90;;;15.30;;
8219;SDS011;4151;51.110;7.020;2022-10-15T05:36:08;40.90;;;16.60;;
8219;SDS011;4151;51.110;7.020;2022-10-15T05:38:36;33.43;;;14.00;;
8219;SDS011;4151;51.110;7.020;2022-10-15T05:41:02;44.97;;;15.50;;
8219;SDS011;4151;51.110;7.020;2022-10-15T05:43:28;33.37;;;15.80;;
8219;SDS011;4151;51.110;7.020;2022-10-15T05:45:54;32.57;;;15.20;;
8219;SDS011;4151;51.110;7.020;2022-10-15T05:48:20;38.30;;;15.20;;
8219;SDS011;4151;51.110;7.020;2022-10-15T05:50:45;32.67;;;15.07;;
8219;SDS011;4151;51.110;7.020;2022-10-15T05:53:11;34.57;;;15.20;;
8219;SDS011;4151;51.110;7.020;2022-10-15T05:55:36;34.43;;;14.37;;
8219;SDS011;4151;51.110;7.020;2022-10-15T05:58:03;31.57;;;14.00;;
8219;SDS011;4151;51.110;7.020;2022-10-15T06:00:29;33.57;;;15.13;;
8219;SDS011;4151;51.110;7.020;2022-10-15T06:02:55;38.00;;;15.10;;
8219;SDS011;4151;51.110;7.020;2022-10-15T06:05:21;34.47;;;15.73;;
8219;SDS011;4151;51.110;7.020;2022-10-15T06:07:46;35.07;;;15.90;;
8219;SDS011;4151;51.110;7.020;2022-10-15T06:10:12;33.10;;;15.53;;
8219;SDS011;4151;51.110;7.020;2022-10-15T06:12:37;31.47;;;15.27;;
8219;SDS011;4151;51.110;7.020;2022-10-15T06:15:03;41.03;;;15.37;;
8219;SDS011;4151;51.110;7.020;2022-10-15T06:17:30;34.67;;;15.87;;
8219;SDS011;4151;51.110;7.020;2022-10-15T06:19:55;36.00;;;16.47;;
8219;SDS011;4151;51.110;7.020;2022-10-15T06:22:21;37.87;;;16.40;;
8219;SDS011;4151;51.110;7.020;2022-10-15T06:24:46;39.13;;;16.30;;
8219;SDS011;4151;51.110;7.020;2022-10-15T06:27:12;41.87;;;16.87;;
8219;SDS011;4151;51.110;7.020;2022-10-15T06:29:38;40.97;;;16.87;;
8219;SDS011;4151;51.110;7.020;2022-10-15T06:32:04;40.63;;;17.97;;
8219;SDS011;4151;51.110;7.020;2022-10-15T06:34:32;49.57;;;21.17;;
8219;SDS011;4151;51.110;7.020;2022-10-15T06:36:58;45.97;;;19.80;;
8219;SDS011;4151;51.110;7.020;2022-10-15T06:39:23;51.23;;;19.60;;
8219;SDS011;4151;51.110;7.020;2022-10-15T06:41:49;47.60;;;18.80;;
8219;SDS011;4151;51.110;7.020;2022-10-15T06:44:14;45.53;;;20.40;;
8219;SDS011;4151;51.110;7.020;2022-10-15T06:46:40;36.60;;;17.00;;
8219;SDS011;4151;51.110;7.020;2022-10-15T06:49:06;41.23;;;18.00;;
8219;SDS011;4151;51.110;7.020;2022-10-15T06:51:31;40.27;;;18.27;;
8219;SDS011;4151;51.110;7.020;2022-10-15T06:53:57;36.10;;;17.40;;
8219;SDS011;4151;51.110;7.020;2022-10-15T06:56:23;33.47;;;16.50;;
8219;SDS011;4151;51.110;7.020;2022-10-15T06:58:48;44.17;;;16.10;;
8219;SDS011;4151;51.110;7.020;2022-10-15T07:01:14;33.87;;;16.07;;
8219;SDS011;4151;51.110;7.020;2022-10-15T07:03:40;31.90;;;15.30;;
8219;SDS011;4151;51.110;7.020;2022-10-15T07:06:06;34.03;;;15.57;;
8219;SDS011;4151;51.110;7.020;2022-10-15T07:08:33;30.50;;;15.13;;
8219;SDS011;4151;51.110;7.020;2022-10-15T07:11:00;37.73;;;15.80;;
8219;SDS011;4151;51.110;7.020;2022-10-15T07:13:27;25.70;;;14.30;;
8219;SDS011;4151;51.110;7.020;2022-10-15T07:15:53;23.17;;;12.53;;
8219;SDS011;4151;51.110;7.020;2022-10-15T07:18:20;22.57;;;12.70;;
8219;SDS011;4151;51.110;7.020;2022-10-15T07:20:45;26.40;;;11.77;;
8219;SDS011;4151;51.110;7.020;2022-10-15T07:23:11;18.10;;;10.67;;
8219;SDS011;4151;51.110;7.020;2022-10-15T07:25:37;23.70;;;10.83;;
8219;SDS011;4151;51.110;7.020;2022-10-15T07:28:03;14.93;;;9.77;;
8219;SDS011;4151;51.110;7.020;2022-10-15T07:30:29;17.03;;;9.23;;
8219;SDS011;4151;51.110;7.020;2022-10-15T07:32:55;15.97;;;9.00;;
8219;SDS011;4151;51.110;7.020;2022-10-15T07:35:22;14.87;;;8.57;;
8219;SDS011;4151;51.110;7.020;2022-10-15T07:37:48;14.77;;;7.80;;
8219;SDS011;4151;51.110;7.020;2022-10-15T07:40:14;10.53;;;7.23;;
8219;SDS011;4151;51.110;7.020;2022-10-15T07:42:41;13.30;;;7.23;;
8219;SDS011;4151;51.110;7.020;2022-10-15T07:45:07;14.23;;;7.63;;
8219;SDS011;4151;51.110;7.020;2022-10-15T07:47:33;14.27;;;6.27;;
8219;SDS011;4151;51.110;7.020;2022-10-15T07:49:58;13.33;;;5.50;;
8219;SDS011;4151;51.110;7.020;2022-10-15T07:52:24;7.33;;;5.63;;
8219;SDS011;4151;51.110;7.020;2022-10-15T07:54:50;17.63;;;5.40;;
8219;SDS011;4151;51.110;7.020;2022-10-15T07:57:16;7.37;;;5.00;;
8219;SDS011;4151;51.110;7.020;2022-10-15T07:59:41;8.57;;;4.50;;
8219;SDS011;4151;51.110;7.020;2022-10-15T08:02:11;5.33;;;4.07;;
8219;SDS011;4151;51.110;7.020;2022-10-15T08:04:40;5.97;;;3.60;;
8219;SDS011;4151;51.110;7.020;2022-10-15T08:07:06;4.80;;;3.27;;
8219;SDS011;4151;51.110;7.020;2022-10-15T08:09:31;4.07;;;2.83;;
8219;SDS011;4151;51.110;7.020;2022-10-15T08:11:57;10.20;;;2.80;;
8219;SDS011;4151;51.110;7.020;2022-10-15T08:14:22;7.00;;;2.50;;
8219;SDS011;4151;51.110;7.020;2022-10-15T08:16:48;2.60;;;2.20;;
8219;SDS011;4151;51.110;7.020;2022-10-15T08:19:13;3.10;;;2.30;;
8219;SDS011;4151;51.110;7.020;2022-10-15T08:21:41;2.47;;;1.97;;
8219;SDS011;4151;51.110;7.020;2022-10-15T08:24:08;3.80;;;1.73;;
8219;SDS011;4151;51.110;7.020;2022-10-15T08:26:34;2.97;;;1.57;;
8219;SDS011;4151;51.110;7.020;2022-10-15T08:29:00;2.03;;;1.83;;
8219;SDS011;4151;51.110;7.020;2022-10-15T08:31:25;1.93;;;1.73;;
8219;SDS011;4151;51.110;7.020;2022-10-15T08:33:51;3.27;;;1.90;;
8219;SDS011;4151;51.110;7.020;2022-10-15T08:36:16;3.70;;;1.80;;
8219;SDS011;4151;51.110;7.020;2022-10-15T08:38:42;1.70;;;1.60;;
8219;SDS011;4151;51.110;7.020;2022-10-15T08:41:16;2.10;;;1.63;;
8219;SDS011;4151;51.110;7.020;2022-10-15T08:43:46;3.00;;;1.47;;
8219;SDS011;4151;51.110;7.020;2022-10-15T08:46:15;4.70;;;1.87;;
8219;SDS011;4151;51.110;7.020;2022-10-15T08:49:13;1.53;;;1.40;;
8219;SDS011;4151;51.110;7.020;2022-10-15T08:52:02;5.17;;;1.40;;
8219;SDS011;4151;51.110;7.020;2022-10-15T08:54:38;1.30;;;1.00;;
8219;SDS011;4151;51.110;7.020;2022-10-15T08:57:15;1.60;;;1.50;;
8219;SDS011;4151;51.110;7.020;2022-10-15T08:59:56;1.00;;;0.90;;
8219;SDS011;4151;51.110;7.020;2022-10-15T09:02:29;3.40;;;1.23;;
8219;SDS011;4151;51.110;7.020;2022-10-15T09:07:43;2.33;;;1.33;;
8219;SDS011;4151;51.110;7.020;2022-10-15T09:10:22;1.50;;;1.20;;
8219;SDS011;4151;51.110;7.020;2022-10-15T09:13:02;1.00;;;0.90;;
8219;SDS011;4151;51.110;7.020;2022-10-15T09:15:35;1.10;;;1.00;;
8219;SDS011;4151;51.110;7.020;2022-10-15T09:18:11;1.10;;;1.00;;
8219;SDS011;4151;51.110;7.020;2022-10-15T09:20:44;3.47;;;0.93;;
8219;SDS011;4151;51.110;7.020;2022-10-15T09:23:12;2.00;;;0.90;;
8219;SDS011;4151;51.110;7.020;2022-10-15T09:25:51;2.50;;;1.00;;
8219;SDS011;4151;51.110;7.020;2022-10-15T09:28:24;6.30;;;0.80;;
8219;SDS011;4151;51.110;7.020;2022-10-15T09:30:55;2.50;;;1.10;;
8219;SDS011;4151;51.110;7.020;2022-10-15T09:33:36;2.20;;;1.07;;
8219;SDS011;4151;51.110;7.020;2022-10-15T09:36:08;1.47;;;1.20;;
8219;SDS011;4151;51.110;7.020;2022-10-15T09:38:52;0.90;;;0.80;;
8219;SDS011;4151;51.110;7.020;2022-10-15T09:44:23;0.90;;;0.90;;
8219;SDS011;4151;51.110;7.020;2022-10-15T09:46:55;1.00;;;0.80;;
8219;SDS011;4151;51.110;7.020;2022-10-15T09:49:23;9.83;;;1.00;;
8219;SDS011;4151;51.110;7.020;2022-10-15T09:52:11;0.80;;;0.80;;
8219;SDS011;4151;51.110;7.020;2022-10-15T09:54:51;1.60;;;0.87;;
8219;SDS011;4151;51.110;7.020;2022-10-15T09:57:20;1.00;;;0.90;;
8219;SDS011;4151;51.110;7.020;2022-10-15T09:59:57;1.07;;;0.80;;
8219;SDS011;4151;51.110;7.020;2022-10-15T10:02:27;3.30;;;0.83;;
8219;SDS011;4151;51.110;7.020;2022-10-15T10:04:53;1.73;;;0.90;;
8219;SDS011;4151;51.110;7.020;2022-10-15T10:07:35;2.80;;;1.00;;
8219;SDS011;4151;51.110;7.020;2022-10-15T10:12:51;0.80;;;0.70;;
8219;SDS011;4151;51.110;7.020;2022-10-15T10:15:25;1.10;;;0.90;;
8219;SDS011;4151;51.110;7.020;2022-10-15T10:17:57;0.80;;;0.80;;
8219;SDS011;4151;51.110;7.020;2022-10-15T10:20:26;1.53;;;0.70;;
8219;SDS011;4151;51.110;7.020;2022-10-15T10:22:54;1.10;;;1.00;;
8219;SDS011;4151;51.110;7.020;2022-10-15T10:28:14;1.00;;;0.90;;
8219;SDS011;4151;51.110;7.020;2022-10-15T10:33:23;0.90;;;0.70;;
8219;SDS011;4151;51.110;7.020;2022-10-15T10:35:52;1.90;;;0.97;;
8219;SDS011;4151;51.110;7.020;2022-10-15T10:38:23;1.10;;;0.80;;
8219;SDS011;4151;51.110;7.020;2022-10-15T10:41:10;3.73;;;0.90;;
8219;SDS011;4151;51.110;7.020;2022-10-15T10:43:39;1.37;;;0.70;;
8219;SDS011;4151;51.110;7.020;2022-10-15T10:46:17;5.33;;;1.27;;
8219;SDS011;4151;51.110;7.020;2022-10-15T10:48:48;0.97;;;0.90;;
8219;SDS011;4151;51.110;7.020;2022-10-15T10:51:16;1.40;;;0.90;;
8219;SDS011;4151;51.110;7.020;2022-10-15T10:53:50;2.13;;;0.80;;
8219;SDS011;4151;51.110;7.020;2022-10-15T10:56:23;1.13;;;1.03;;
8219;SDS011;4151;51.110;7.020;2022-10-15T10:59:10;1.30;;;1.20;;
8219;SDS011;4151;51.110;7.020;2022-10-15T11:01:47;1.50;;;0.90;;
8219;SDS011;4151;51.110;7.020;2022-10-15T11:04:14;0.97;;;0.77;;
8219;SDS011;4151;51.110;7.020;2022-10-15T11:09:28;2.97;;;0.90;;
8219;SDS011;4151;51.110;7.020;2022-10-15T11:21:01;0.90;;;0.90;;
8219;SDS011;4151;51.110;7.020;2022-10-15T11:24:07;0.80;;;0.80;;
8219;SDS011;4151;51.110;7.020;2022-10-15T11:29:29;1.37;;;0.80;;
8219;SDS011;4151;51.110;7.020;2022-10-15T11:32:18;0.87;;;0.70;;
8219;SDS011;4151;51.110;7.020;2022-10-15T11:40:31;2.30;;;0.70;;
8219;SDS011;4151;51.110;7.020;2022-10-15T11:56:42;1.37;;;0.77;;
8219;SDS011;4151;51.110;7.020;2022-10-15T11:59:17;2.77;;;0.80;;
8219;SDS011;4151;51.110;7.020;2022-10-15T12:01:44;1.00;;;0.90;;
8219;SDS011;4151;51.110;7.020;2022-10-15T12:04:15;1.63;;;0.73;;
8219;SDS011;4151;51.110;7.020;2022-10-15T12:07:00;7.30;;;1.20;;
8219;SDS011;4151;51.110;7.020;2022-10-15T12:09:29;1.20;;;0.87;;
8219;SDS011;4151;51.110;7.020;2022-10-15T12:14:37;2.20;;;0.80;;
8219;SDS011;4151;51.110;7.020;2022-10-15T12:19:55;0.80;;;0.80;;
8219;SDS011;4151;51.110;7.020;2022-10-15T12:22:30;1.93;;;0.73;;
8219;SDS011;4151;51.110;7.020;2022-10-15T12:24:58;1.63;;;0.70;;
8219;SDS011;4151;51.110;7.020;2022-10-15T12:27:31;0.80;;;0.80;;
8219;SDS011;4151;51.110;7.020;2022-10-15T12:32:27;1.07;;;0.83;;
8219;SDS011;4151;51.110;7.020;2022-10-15T12:34:58;1.07;;;0.80;;
8219;SDS011;4151;51.110;7.020;2022-10-15T12:37:27;0.80;;;0.80;;
8219;SDS011;4151;51.110;7.020;2022-10-15T12:39:59;0.97;;;0.80;;
8219;SDS011;4151;51.110;7.020;2022-10-15T12:42:29;1.47;;;0.90;;
8219;SDS011;4151;51.110;7.020;2022-10-15T12:44:55;1.53;;;0.80;;
8219;SDS011;4151;51.110;7.020;2022-10-15T12:50:23;1.33;;;0.67;;
8219;SDS011;4151;51.110;7.020;2022-10-15T12:52:55;1.10;;;0.90;;
8219;SDS011;4151;51.110;7.020;2022-10-15T12:57:58;3.03;;;1.00;;
8219;SDS011;4151;51.110;7.020;2022-10-15T13:00:27;2.03;;;1.00;;
8219;SDS011;4151;51.110;7.020;2022-10-15T13:02:56;0.80;;;0.70;;
8219;SDS011;4151;51.110;7.020;2022-10-15T13:05:32;3.77;;;0.93;;
8219;SDS011;4151;51.110;7.020;2022-10-15T13:08:00;1.43;;;0.77;;
8219;SDS011;4151;51.110;7.020;2022-10-15T13:10:29;1.47;;;0.70;;
8219;SDS011;4151;51.110;7.020;2022-10-15T13:13:01;0.70;;;0.63;;
8219;SDS011;4151;51.110;7.020;2022-10-15T13:15:30;1.17;;;0.70;;
8219;SDS011;4151;51.110;7.020;2022-10-15T13:17:58;1.73;;;0.83;;
8219;SDS011;4151;51.110;7.020;2022-10-15T13:20:32;1.30;;;0.93;;
8219;SDS011;4151;51.110;7.020;2022-10-15T13:23:33;2.33;;;1.13;;
8219;SDS011;4151;51.110;7.020;2022-10-15T13:28:38;1.10;;;0.90;;
8219;SDS011;4151;51.110;7.020;2022-10-15T13:31:07;1.00;;;0.70;;
8219;SDS011;4151;51.110;7.020;2022-10-15T13:33:51;1.30;;;1.00;;
8219;SDS011;4151;51.110;7.020;2022-10-15T13:36:22;1.33;;;0.93;;
8219;SDS011;4151;51.110;7.020;2022-10-15T13:38:55;3.57;;;0.90;;
8219;SDS011;4151;51.110;7.020;2022-10-15T13:41:23;1.40;;;0.90;;
8219;SDS011;4151;51.110;7.020;2022-10-15T13:43:51;2.20;;;0.97;;
8219;SDS011;4151;51.110;7.020;2022-10-15T13:46:22;1.00;;;0.93;;
8219;SDS011;4151;51.110;7.020;2022-10-15T13:48:56;1.27;;;0.80;;
8219;SDS011;4151;51.110;7.020;2022-10-15T13:51:23;2.00;;;1.00;;
8219;SDS011;4151;51.110;7.020;2022-10-15T13:53:53;0.83;;;0.70;;
8219;SDS011;4151;51.110;7.020;2022-10-15T13:56:22;1.30;;;0.70;;
8219;SDS011;4151;51.110;7.020;2022-10-15T13:58:56;1.20;;;0.70;;
8219;SDS011;4151;51.110;7.020;2022-10-15T14:01:24;2.30;;;1.00;;
8219;SDS011;4151;51.110;7.020;2022-10-15T14:03:52;0.80;;;0.70;;
8219;SDS011;4151;51.110;7.020;2022-10-15T14:06:26;0.90;;;0.63;;
8219;SDS011;4151;51.110;7.020;2022-10-15T14:09:00;0.70;;;0.60;;
8219;SDS011;4151;51.110;7.020;2022-10-15T14:11:37;1.20;;;0.70;;
8219;SDS011;4151;51.110;7.020;2022-10-15T14:14:04;0.70;;;0.60;;
8219;SDS011;4151;51.110;7.020;2022-10-15T14:16:53;0.80;;;0.70;;
8219;SDS011;4151;51.110;7.020;2022-10-15T14:19:20;1.03;;;0.70;;
8219;SDS011;4151;51.110;7.020;2022-10-15T14:21:51;1.10;;;0.70;;
8219;SDS011;4151;51.110;7.020;2022-10-15T14:24:35;0.87;;;0.60;;
8219;SDS011;4151;51.110;7.020;2022-10-15T14:27:03;6.00;;;0.73;;
8219;SDS011;4151;51.110;7.020;2022-10-15T14:29:36;0.90;;;0.70;;
8219;SDS011;4151;51.110;7.020;2022-10-15T14:32:18;0.93;;;0.60;;
8219;SDS011;4151;51.110;7.020;2022-10-15T14:34:50;0.80;;;0.63;;
8219;SDS011;4151;51.110;7.020;2022-10-15T14:45:18;1.00;;;0.80;;
8219;SDS011;4151;51.110;7.020;2022-10-15T14:47:53;1.23;;;0.80;;
8219;SDS011;4151;51.110;7.020;2022-10-15T14:50:29;1.40;;;0.70;;
8219;SDS011;4151;51.110;7.020;2022-10-15T14:52:56;1.43;;;0.73;;
8219;SDS011;4151;51.110;7.020;2022-10-15T14:57:58;1.47;;;0.77;;
8219;SDS011;4151;51.110;7.020;2022-10-15T15:00:26;0.93;;;0.77;;
8219;SDS011;4151;51.110;7.020;2022-10-15T15:02:56;0.90;;;0.77;;
8219;SDS011;4151;51.110;7.020;2022-10-15T15:05:24;1.43;;;0.80;;
8219;SDS011;4151;51.110;7.020;2022-10-15T15:07:50;1.43;;;1.13;;
8219;SDS011;4151;51.110;7.020;2022-10-15T15:10:17;0.80;;;0.60;;
8219;SDS011;4151;51.110;7.020;2022-10-15T15:12:50;0.93;;;0.70;;
8219;SDS011;4151;51.110;7.020;2022-10-15T15:15:21;2.20;;;0.80;;
8219;SDS011;4151;51.110;7.020;2022-10-15T15:17:49;1.83;;;0.80;;
8219;SDS011;4151;51.110;7.020;2022-10-15T15:20:15;0.90;;;0.73;;
8219;SDS011;4151;51.110;7.020;2022-10-15T15:22:44;1.00;;;0.90;;
8219;SDS011;4151;51.110;7.020;2022-10-15T15:25:18;3.87;;;1.10;;
8219;SDS011;4151;51.110;7.020;2022-10-15T15:27:44;3.40;;;1.90;;
8219;SDS011;4151;51.110;7.020;2022-10-15T15:30:17;1.83;;;1.30;;
8219;SDS011;4151;51.110;7.020;2022-10-15T15:32:45;3.93;;;1.60;;
8219;SDS011;4151;51.110;7.020;2022-10-15T15:35:15;2.30;;;1.10;;
8219;SDS011;4151;51.110;7.020;2022-10-15T15:37:51;7.70;;;1.40;;
8219;SDS011;4151;51.110;7.020;2022-10-15T15:40:17;1.97;;;1.70;;
8219;SDS011;4151;51.110;7.020;2022-10-15T15:42:43;3.10;;;1.47;;
8219;SDS011;4151;51.110;7.020;2022-10-15T15:45:22;1.83;;;1.20;;
8219;SDS011;4151;51.110;7.020;2022-10-15T15:47:49;2.27;;;2.07;;
8219;SDS011;4151;51.110;7.020;2022-10-15T15:50:15;3.43;;;2.00;;
8219;SDS011;4151;51.110;7.020;2022-10-15T15:52:42;7.00;;;1.90;;
8219;SDS011;4151;51.110;7.020;2022-10-15T15:55:08;3.33;;;2.10;;
8219;SDS011;4151;51.110;7.020;2022-10-15T15:57:34;7.17;;;2.37;;
8219;SDS011;4151;51.110;7.020;2022-10-15T16:00:00;2.33;;;1.80;;
8219;SDS011;4151;51.110;7.020;2022-10-15T16:02:25;5.00;;;2.37;;
8219;SDS011;4151;51.110;7.020;2022-10-15T16:04:51;4.57;;;2.30;;
8219;SDS011;4151;51.110;7.020;2022-10-15T16:07:16;3.77;;;2.57;;
8219;SDS011;4151;51.110;7.020;2022-10-15T16:09:42;3.80;;;2.77;;
8219;SDS011;4151;51.110;7.020;2022-10-15T16:12:08;8.83;;;4.03;;
8219;SDS011;4151;51.110;7.020;2022-10-15T16:14:34;7.07;;;3.30;;
8219;SDS011;4151;51.110;7.020;2022-10-15T16:16:59;6.47;;;3.30;;
8219;SDS011;4151;51.110;7.020;2022-10-15T16:19:25;8.60;;;3.23;;
8219;SDS011;4151;51.110;7.020;2022-10-15T16:21:50;4.90;;;3.23;;
8219;SDS011;4151;51.110;7.020;2022-10-15T16:24:16;4.43;;;3.10;;
8219;SDS011;4151;51.110;7.020;2022-10-15T16:26:42;6.27;;;3.37;;
8219;SDS011;4151;51.110;7.020;2022-10-15T16:29:07;8.93;;;3.90;;
8219;SDS011;4151;51.110;7.020;2022-10-15T16:31:33;5.20;;;3.30;;
8219;SDS011;4151;51.110;7.020;2022-10-15T16:34:01;4.27;;;3.17;;
8219;SDS011;4151;51.110;7.020;2022-10-15T16:36:30;10.20;;;6.13;;
8219;SDS011;4151;51.110;7.020;2022-10-15T16:38:56;5.07;;;3.63;;
8219;SDS011;4151;51.110;7.020;2022-10-15T16:41:22;5.83;;;4.10;;
8219;SDS011;4151;51.110;7.020;2022-10-15T16:43:48;5.10;;;3.80;;
8219;SDS011;4151;51.110;7.020;2022-10-15T16:46:14;5.97;;;3.73;;
8219;SDS011;4151;51.110;7.020;2022-10-15T16:48:41;8.00;;;3.90;;
8219;SDS011;4151;51.110;7.020;2022-10-15T16:51:08;11.30;;;5.57;;
8219;SDS011;4151;51.110;7.020;2022-10-15T16:53:37;4.00;;;2.87;;
8219;SDS011;4151;51.110;7.020;2022-10-15T16:56:14;6.27;;;3.70;;